aviador You're here:

UTAT Decoded Metar

DASHOGUZ in RUSSIA
Report Time2017-08-21 13:00:00
UTC Time2017-08-21 13:57:52
Flight Rules vfr VFR
Wind080° at 10 kt
W.Decomp.*RWY 09: 9.7 kt HW 2.6 kt LCW
W.Rank080° ranks 5
Current wind is above 080° avg. (9.6)
Visibility9999 m
Phenomena:N/A
Clouds:N/A
Expected CloudBase > 12,000 ft AGL from Temp-Dew spread
CeilingNone
Temp33°C (ISA +19)
Dew Point03°C (15% RH)
Heat Index30.7°C
AAT27.9°C
QNH1012 hPa
Density Alt2,526 ft
Elevation272 ft
Report Wrong Elevation
Raw Report
UTAT 211300Z 08010KT 050V110 CAVOK 33/03 Q1012 NOSIG=

Extra information for UTAT:More info

Metar Taf Metar & Taf Last 4 Metars F.Rules Stats Wind Profile Meteogram Temp Stats Airport Information Weather charts Add Link Nearby VenuesMetar ALERT Operation Metar Decoded Social comments